Terminal Aerodrome Forecast
Issued by NWS Rapid City, SD

Home | Current Version | Previous Version | Graphics & Text | Print | Product List | Glossary On
Versions: 1 2 3 4 5 6 7 8 9 10 11 12 13 14 15 16
000
FTUS43 KUNR 010500
TAFRAP
TAF
KRAP 010520Z 0106/0206 20010KT P6SM OVC200
     FM011000 33030G40KT P6SM SCT150
     FM012200 33025G35KT P6SM SCT250=

USA.gov is the U.S. government's official web portal to all federal, state and local government web resources and services.